Beatrice, Nebraska
Current Conditions -  °F | °C
As of 5:15 AM on Wednesday 26 Nov 2014 (Local Time) from KBIE Reporting Station
Broken Clouds Broken Clouds  
Wind Chill: 25°   Ceiling: 8000
Heat Index: 33°   Visibility: 10mi
Dew Point: 29°   Wind: 12mph
Humidity: 85%   Direction: 280°W
Pressure: 29.92"   Gusts: NA
Location:  40.27°N, 96.75°W
Report Text: KBIE 261115Z AUTO 28010KT 10SM BKN080 01/M01 A2992 RMK AO2 T00071015
Loading
Personal Weather Stations






























Interactive Weather Map New forecast layout! Learn more

10-Day Weather Forecast

Advertisements
Track Severe Weather on mobile